sensor_id;sensor_type;location;lat;lon;timestamp;pressure;altitude;pressure_sealevel;temperature;humidity
55490;BME280;44029;52.956;4.772;2023-10-13T00:01:22;101050.09;;;22.64;100.00
55490;BME280;44029;52.956;4.772;2023-10-13T00:03:47;101051.91;;;22.11;100.00
55490;BME280;44029;52.956;4.772;2023-10-13T00:06:13;101049.00;;;22.25;100.00
55490;BME280;44029;52.956;4.772;2023-10-13T00:08:38;101044.66;;;22.42;100.00
55490;BME280;44029;52.956;4.772;2023-10-13T00:11:05;101044.81;;;22.45;100.00
55490;BME280;44029;52.956;4.772;2023-10-13T00:13:31;101043.81;;;22.50;100.00
55490;BME280;44029;52.956;4.772;2023-10-13T00:16:18;101040.28;;;22.18;100.00
55490;BME280;44029;52.956;4.772;2023-10-13T00:18:47;101040.19;;;22.41;100.00
55490;BME280;44029;52.956;4.772;2023-10-13T00:21:14;101033.69;;;22.05;100.00
55490;BME280;44029;52.956;4.772;2023-10-13T00:23:56;101046.19;;;21.76;100.00
55490;BME280;44029;52.956;4.772;2023-10-13T00:26:23;101045.22;;;22.21;100.00
55490;BME280;44029;52.956;4.772;2023-10-13T00:29:09;101020.47;;;22.37;100.00
55490;BME280;44029;52.956;4.772;2023-10-13T00:31:42;101029.28;;;22.22;100.00
55490;BME280;44029;52.956;4.772;2023-10-13T00:34:11;101022.97;;;22.47;100.00
55490;BME280;44029;52.956;4.772;2023-10-13T00:36:41;101030.44;;;22.12;100.00
55490;BME280;44029;52.956;4.772;2023-10-13T00:39:16;101021.25;;;22.20;100.00
55490;BME280;44029;52.956;4.772;2023-10-13T00:41:43;101015.84;;;22.24;100.00
55490;BME280;44029;52.956;4.772;2023-10-13T00:44:21;101013.13;;;21.92;100.00
55490;BME280;44029;52.956;4.772;2023-10-13T00:47:04;101004.25;;;22.48;100.00
55490;BME280;44029;52.956;4.772;2023-10-13T00:49:33;101000.28;;;22.31;100.00
55490;BME280;44029;52.956;4.772;2023-10-13T00:52:01;100997.13;;;22.15;100.00
55490;BME280;44029;52.956;4.772;2023-10-13T00:54:26;100996.44;;;22.18;100.00
55490;BME280;44029;52.956;4.772;2023-10-13T00:56:53;100994.19;;;22.29;100.00
55490;BME280;44029;52.956;4.772;2023-10-13T00:59:30;100994.81;;;22.17;100.00
55490;BME280;44029;52.956;4.772;2023-10-13T01:02:02;100987.72;;;22.03;100.00
55490;BME280;44029;52.956;4.772;2023-10-13T01:04:48;100991.19;;;22.08;100.00
55490;BME280;44029;52.956;4.772;2023-10-13T01:07:14;100992.97;;;21.95;100.00
55490;BME280;44029;52.956;4.772;2023-10-13T01:09:42;100974.44;;;21.59;100.00
55490;BME280;44029;52.956;4.772;2023-10-13T01:12:07;100978.72;;;21.57;100.00
55490;BME280;44029;52.956;4.772;2023-10-13T01:14:34;100974.34;;;21.73;100.00
55490;BME280;44029;52.956;4.772;2023-10-13T01:17:01;100971.75;;;21.77;100.00
55490;BME280;44029;52.956;4.772;2023-10-13T01:19:26;100969.34;;;21.53;100.00
55490;BME280;44029;52.956;4.772;2023-10-13T01:21:53;100962.13;;;21.52;100.00
55490;BME280;44029;52.956;4.772;2023-10-13T01:24:30;100957.97;;;21.89;100.00
55490;BME280;44029;52.956;4.772;2023-10-13T01:27:06;100958.66;;;21.95;100.00
55490;BME280;44029;52.956;4.772;2023-10-13T01:29:46;100957.47;;;21.87;100.00
55490;BME280;44029;52.956;4.772;2023-10-13T01:32:17;100947.03;;;22.19;100.00
55490;BME280;44029;52.956;4.772;2023-10-13T01:34:43;100942.09;;;22.07;100.00
55490;BME280;44029;52.956;4.772;2023-10-13T01:37:11;100937.41;;;22.34;100.00
55490;BME280;44029;52.956;4.772;2023-10-13T01:39:37;100945.19;;;21.88;100.00
55490;BME280;44029;52.956;4.772;2023-10-13T01:42:02;100928.03;;;22.30;100.00
55490;BME280;44029;52.956;4.772;2023-10-13T01:44:28;100934.88;;;22.15;100.00
55490;BME280;44029;52.956;4.772;2023-10-13T01:46:57;100927.63;;;21.79;100.00
55490;BME280;44029;52.956;4.772;2023-10-13T01:49:33;100930.75;;;21.95;100.00
55490;BME280;44029;52.956;4.772;2023-10-13T01:52:06;100930.09;;;21.98;100.00
55490;BME280;44029;52.956;4.772;2023-10-13T01:54:32;100928.50;;;22.23;100.00
55490;BME280;44029;52.956;4.772;2023-10-13T01:56:57;100927.50;;;22.10;100.00
55490;BME280;44029;52.956;4.772;2023-10-13T01:59:25;100915.19;;;22.11;100.00
55490;BME280;44029;52.956;4.772;2023-10-13T02:01:52;100914.38;;;22.19;100.00
55490;BME280;44029;52.956;4.772;2023-10-13T02:04:20;100903.53;;;22.62;100.00
55490;BME280;44029;52.956;4.772;2023-10-13T02:06:46;100904.22;;;22.41;100.00
55490;BME280;44029;52.956;4.772;2023-10-13T02:09:11;100902.56;;;22.05;100.00
55490;BME280;44029;52.956;4.772;2023-10-13T02:11:51;100886.81;;;22.53;100.00
55490;BME280;44029;52.956;4.772;2023-10-13T02:14:20;100890.91;;;22.12;100.00
55490;BME280;44029;52.956;4.772;2023-10-13T02:16:48;100885.31;;;22.20;100.00
55490;BME280;44029;52.956;4.772;2023-10-13T02:19:15;100890.09;;;22.37;100.00
55490;BME280;44029;52.956;4.772;2023-10-13T02:21:42;100887.31;;;22.46;100.00
55490;BME280;44029;52.956;4.772;2023-10-13T02:24:10;100882.53;;;22.55;100.00
55490;BME280;44029;52.956;4.772;2023-10-13T02:26:40;100869.06;;;22.05;100.00
55490;BME280;44029;52.956;4.772;2023-10-13T02:29:06;100874.53;;;22.36;100.00
55490;BME280;44029;52.956;4.772;2023-10-13T02:31:38;100873.72;;;22.36;100.00
55490;BME280;44029;52.956;4.772;2023-10-13T02:34:04;100864.50;;;22.53;100.00
55490;BME280;44029;52.956;4.772;2023-10-13T02:36:38;100859.06;;;22.56;100.00
55490;BME280;44029;52.956;4.772;2023-10-13T02:39:16;100848.59;;;22.36;100.00
55490;BME280;44029;52.956;4.772;2023-10-13T02:41:42;100850.53;;;22.35;100.00
55490;BME280;44029;52.956;4.772;2023-10-13T02:44:13;100850.19;;;22.02;100.00
55490;BME280;44029;52.956;4.772;2023-10-13T02:46:55;100847.22;;;22.68;100.00
55490;BME280;44029;52.956;4.772;2023-10-13T02:49:27;100842.63;;;22.64;100.00
55490;BME280;44029;52.956;4.772;2023-10-13T02:51:56;100831.78;;;22.62;100.00
55490;BME280;44029;52.956;4.772;2023-10-13T02:54:24;100821.94;;;22.56;100.00
55490;BME280;44029;52.956;4.772;2023-10-13T02:56:55;100810.56;;;22.70;100.00
55490;BME280;44029;52.956;4.772;2023-10-13T02:59:29;100800.06;;;22.67;100.00
55490;BME280;44029;52.956;4.772;2023-10-13T03:02:15;100800.22;;;22.62;100.00
55490;BME280;44029;52.956;4.772;2023-10-13T03:04:49;100795.41;;;22.88;100.00
55490;BME280;44029;52.956;4.772;2023-10-13T03:07:15;100792.09;;;22.95;100.00
55490;BME280;44029;52.956;4.772;2023-10-13T03:09:47;100770.72;;;22.52;100.00
55490;BME280;44029;52.956;4.772;2023-10-13T03:12:16;100774.19;;;22.40;100.00
55490;BME280;44029;52.956;4.772;2023-10-13T03:14:42;100769.47;;;22.14;100.00
55490;BME280;44029;52.956;4.772;2023-10-13T03:17:13;100764.69;;;22.32;100.00
55490;BME280;44029;52.956;4.772;2023-10-13T03:19:48;100751.22;;;22.17;100.00
55490;BME280;44029;52.956;4.772;2023-10-13T03:22:17;100747.78;;;22.20;100.00
55490;BME280;44029;52.956;4.772;2023-10-13T03:24:44;100733.34;;;22.74;100.00
55490;BME280;44029;52.956;4.772;2023-10-13T03:27:21;100733.47;;;22.39;100.00
55490;BME280;44029;52.956;4.772;2023-10-13T03:29:50;100725.59;;;22.41;100.00
55490;BME280;44029;52.956;4.772;2023-10-13T03:32:21;100730.69;;;23.16;100.00
55490;BME280;44029;52.956;4.772;2023-10-13T03:34:49;100729.84;;;22.47;100.00
55490;BME280;44029;52.956;4.772;2023-10-13T03:37:18;100709.94;;;22.57;100.00
55490;BME280;44029;52.956;4.772;2023-10-13T03:40:00;100714.97;;;22.26;100.00
55490;BME280;44029;52.956;4.772;2023-10-13T03:42:31;100708.84;;;22.41;100.00
55490;BME280;44029;52.956;4.772;2023-10-13T03:44:57;100706.78;;;21.94;100.00
55490;BME280;44029;52.956;4.772;2023-10-13T03:47:22;100692.78;;;22.20;100.00
55490;BME280;44029;52.956;4.772;2023-10-13T03:49:57;100679.59;;;22.47;100.00
55490;BME280;44029;52.956;4.772;2023-10-13T03:52:41;100668.44;;;22.47;100.00
55490;BME280;44029;52.956;4.772;2023-10-13T03:55:07;100668.84;;;22.11;100.00
55490;BME280;44029;52.956;4.772;2023-10-13T03:57:33;100681.72;;;21.68;100.00
55490;BME280;44029;52.956;4.772;2023-10-13T03:59:59;100671.66;;;22.02;100.00
55490;BME280;44029;52.956;4.772;2023-10-13T04:02:33;100654.22;;;22.31;100.00
55490;BME280;44029;52.956;4.772;2023-10-13T04:04:58;100628.47;;;22.26;100.00
55490;BME280;44029;52.956;4.772;2023-10-13T04:07:32;100631.72;;;22.28;100.00
55490;BME280;44029;52.956;4.772;2023-10-13T04:09:57;100625.25;;;22.45;100.00
55490;BME280;44029;52.956;4.772;2023-10-13T04:12:41;100628.50;;;22.08;100.00
55490;BME280;44029;52.956;4.772;2023-10-13T04:15:25;100616.16;;;21.45;100.00
55490;BME280;44029;52.956;4.772;2023-10-13T04:18:01;100623.06;;;21.47;100.00
55490;BME280;44029;52.956;4.772;2023-10-13T04:20:39;100631.38;;;21.65;100.00
55490;BME280;44029;52.956;4.772;2023-10-13T04:23:04;100623.03;;;21.73;100.00
55490;BME280;44029;52.956;4.772;2023-10-13T04:25:43;100616.00;;;21.32;100.00
55490;BME280;44029;52.956;4.772;2023-10-13T04:28:09;100607.16;;;21.56;100.00
55490;BME280;44029;52.956;4.772;2023-10-13T04:30:51;100597.44;;;22.18;100.00
55490;BME280;44029;52.956;4.772;2023-10-13T04:33:25;100583.97;;;21.73;100.00
55490;BME280;44029;52.956;4.772;2023-10-13T04:36:04;100566.16;;;22.43;100.00
55490;BME280;44029;52.956;4.772;2023-10-13T04:38:48;100558.56;;;22.13;100.00
55490;BME280;44029;52.956;4.772;2023-10-13T04:41:29;100562.06;;;22.01;100.00
55490;BME280;44029;52.956;4.772;2023-10-13T04:44:08;100558.50;;;21.84;100.00
55490;BME280;44029;52.956;4.772;2023-10-13T04:46:53;100556.59;;;21.67;100.00
55490;BME280;44029;52.956;4.772;2023-10-13T04:49:28;100555.13;;;21.69;100.00
55490;BME280;44029;52.956;4.772;2023-10-13T04:51:55;100539.25;;;21.61;100.00
55490;BME280;44029;52.956;4.772;2023-10-13T04:54:45;100527.34;;;21.90;100.00
55490;BME280;44029;52.956;4.772;2023-10-13T04:57:19;100522.34;;;21.66;100.00
55490;BME280;44029;52.956;4.772;2023-10-13T05:00:03;100517.25;;;21.68;100.00
55490;BME280;44029;52.956;4.772;2023-10-13T05:02:28;100507.47;;;21.36;100.00
55490;BME280;44029;52.956;4.772;2023-10-13T05:05:17;100491.44;;;21.80;100.00
55490;BME280;44029;52.956;4.772;2023-10-13T05:08:08;100485.13;;;21.62;100.00
55490;BME280;44029;52.956;4.772;2023-10-13T05:10:52;100481.75;;;21.30;100.00
55490;BME280;44029;52.956;4.772;2023-10-13T05:13:36;100481.94;;;21.25;100.00
55490;BME280;44029;52.956;4.772;2023-10-13T05:16:20;100472.41;;;21.35;100.00
55490;BME280;44029;52.956;4.772;2023-10-13T05:19:04;100479.50;;;21.15;100.00
55490;BME280;44029;52.956;4.772;2023-10-13T05:21:48;100471.91;;;21.41;100.00
55490;BME280;44029;52.956;4.772;2023-10-13T05:24:32;100457.88;;;21.68;100.00
55490;BME280;44029;52.956;4.772;2023-10-13T05:27:16;100447.13;;;21.49;100.00
55490;BME280;44029;52.956;4.772;2023-10-13T05:30:00;100448.06;;;21.61;100.00
55490;BME280;44029;52.956;4.772;2023-10-13T05:32:44;100469.31;;;21.19;100.00
55490;BME280;44029;52.956;4.772;2023-10-13T05:35:30;100469.47;;;21.31;100.00
55490;BME280;44029;52.956;4.772;2023-10-13T05:38:14;100477.03;;;21.13;100.00
55490;BME280;44029;52.956;4.772;2023-10-13T05:41:00;100476.31;;;21.51;100.00
55490;BME280;44029;52.956;4.772;2023-10-13T05:43:45;100478.94;;;21.30;100.00
55490;BME280;44029;52.956;4.772;2023-10-13T05:46:28;100509.00;;;20.81;100.00
55490;BME280;44029;52.956;4.772;2023-10-13T05:49:07;100503.44;;;20.63;100.00
55490;BME280;44029;52.956;4.772;2023-10-13T05:51:43;100503.09;;;21.09;100.00
55490;BME280;44029;52.956;4.772;2023-10-13T05:54:12;100483.06;;;21.24;100.00
55490;BME280;44029;52.956;4.772;2023-10-13T05:56:38;100473.84;;;21.41;100.00
55490;BME280;44029;52.956;4.772;2023-10-13T05:59:22;100460.84;;;21.62;100.00
55490;BME280;44029;52.956;4.772;2023-10-13T06:02:06;100457.63;;;21.52;100.00
55490;BME280;44029;52.956;4.772;2023-10-13T06:04:50;100463.75;;;21.75;100.00
55490;BME280;44029;52.956;4.772;2023-10-13T06:07:34;100435.13;;;21.95;100.00
55490;BME280;44029;52.956;4.772;2023-10-13T06:10:18;100431.63;;;21.98;100.00
55490;BME280;44029;52.956;4.772;2023-10-13T06:13:02;100423.69;;;21.50;100.00
55490;BME280;44029;52.956;4.772;2023-10-13T06:15:45;100418.59;;;21.81;100.00
55490;BME280;44029;52.956;4.772;2023-10-13T06:18:29;100411.66;;;21.58;100.00
55490;BME280;44029;52.956;4.772;2023-10-13T06:21:13;100409.66;;;21.67;100.00
55490;BME280;44029;52.956;4.772;2023-10-13T06:23:57;100393.69;;;22.06;100.00
55490;BME280;44029;52.956;4.772;2023-10-13T06:26:41;100379.44;;;21.78;100.00
55490;BME280;44029;52.956;4.772;2023-10-13T06:29:25;100382.31;;;21.90;100.00
55490;BME280;44029;52.956;4.772;2023-10-13T06:31:50;100367.66;;;21.72;100.00
55490;BME280;44029;52.956;4.772;2023-10-13T06:34:16;100380.84;;;22.14;100.00
55490;BME280;44029;52.956;4.772;2023-10-13T06:36:45;100372.91;;;21.74;100.00
55490;BME280;44029;52.956;4.772;2023-10-13T06:39:12;100369.53;;;22.10;100.00
55490;BME280;44029;52.956;4.772;2023-10-13T06:42:13;100365.75;;;21.64;100.00
55490;BME280;44029;52.956;4.772;2023-10-13T06:44:38;100374.75;;;21.91;100.00
55490;BME280;44029;52.956;4.772;2023-10-13T06:47:05;100365.81;;;21.76;100.00
55490;BME280;44029;52.956;4.772;2023-10-13T06:49:30;100366.38;;;21.91;100.00
55490;BME280;44029;52.956;4.772;2023-10-13T06:52:03;100361.22;;;22.01;100.00
55490;BME280;44029;52.956;4.772;2023-10-13T06:54:31;100362.44;;;21.32;100.00
55490;BME280;44029;52.956;4.772;2023-10-13T06:56:58;100346.91;;;21.61;100.00
55490;BME280;44029;52.956;4.772;2023-10-13T06:59:24;100353.63;;;21.21;100.00
55490;BME280;44029;52.956;4.772;2023-10-13T07:01:52;100366.25;;;21.87;100.00
55490;BME280;44029;52.956;4.772;2023-10-13T07:04:17;100368.69;;;21.89;100.00
55490;BME280;44029;52.956;4.772;2023-10-13T07:06:44;100365.59;;;21.90;100.00
55490;BME280;44029;52.956;4.772;2023-10-13T07:09:14;100344.78;;;22.09;100.00
55490;BME280;44029;52.956;4.772;2023-10-13T07:12:05;100319.97;;;22.49;100.00
55490;BME280;44029;52.956;4.772;2023-10-13T07:14:45;100327.63;;;21.98;100.00
55490;BME280;44029;52.956;4.772;2023-10-13T07:17:16;100341.28;;;21.70;100.00
55490;BME280;44029;52.956;4.772;2023-10-13T07:19:49;100329.59;;;21.47;100.00
55490;BME280;44029;52.956;4.772;2023-10-13T07:22:18;100313.63;;;21.56;100.00
55490;BME280;44029;52.956;4.772;2023-10-13T07:24:47;100317.00;;;21.70;100.00
55490;BME280;44029;52.956;4.772;2023-10-13T07:27:17;100315.56;;;21.85;100.00
55490;BME280;44029;52.956;4.772;2023-10-13T07:29:54;100312.25;;;21.92;100.00
55490;BME280;44029;52.956;4.772;2023-10-13T07:32:53;100299.59;;;21.73;100.00
55490;BME280;44029;52.956;4.772;2023-10-13T07:35:23;100280.53;;;22.17;100.00
55490;BME280;44029;52.956;4.772;2023-10-13T07:37:52;100268.97;;;22.07;100.00
55490;BME280;44029;52.956;4.772;2023-10-13T07:40:19;100270.72;;;22.11;100.00
55490;BME280;44029;52.956;4.772;2023-10-13T07:43:05;100263.53;;;22.10;100.00
55490;BME280;44029;52.956;4.772;2023-10-13T07:45:36;100265.63;;;22.13;100.00
55490;BME280;44029;52.956;4.772;2023-10-13T07:48:09;100251.25;;;22.24;100.00
55490;BME280;44029;52.956;4.772;2023-10-13T07:53:30;100255.56;;;22.00;100.00
55490;BME280;44029;52.956;4.772;2023-10-13T07:56:05;100258.69;;;22.19;100.00
55490;BME280;44029;52.956;4.772;2023-10-13T07:58:34;100256.81;;;22.45;100.00
55490;BME280;44029;52.956;4.772;2023-10-13T08:01:00;100249.31;;;22.03;100.00
55490;BME280;44029;52.956;4.772;2023-10-13T08:03:33;100243.63;;;22.33;100.00
55490;BME280;44029;52.956;4.772;2023-10-13T08:06:09;100231.78;;;21.81;100.00
55490;BME280;44029;52.956;4.772;2023-10-13T08:08:35;100233.34;;;21.91;100.00
55490;BME280;44029;52.956;4.772;2023-10-13T08:11:14;100236.34;;;21.86;100.00
55490;BME280;44029;52.956;4.772;2023-10-13T08:13:55;100219.63;;;22.19;100.00
55490;BME280;44029;52.956;4.772;2023-10-13T08:16:30;100208.50;;;22.32;100.00
55490;BME280;44029;52.956;4.772;2023-10-13T08:19:12;100203.00;;;22.69;100.00
55490;BME280;44029;52.956;4.772;2023-10-13T08:21:40;100187.16;;;22.48;100.00
55490;BME280;44029;52.956;4.772;2023-10-13T08:24:14;100181.66;;;22.27;100.00
55490;BME280;44029;52.956;4.772;2023-10-13T08:26:40;100196.91;;;22.42;100.00
55490;BME280;44029;52.956;4.772;2023-10-13T08:29:24;100185.75;;;22.42;100.00
55490;BME280;44029;52.956;4.772;2023-10-13T08:31:52;100179.97;;;22.47;100.00
55490;BME280;44029;52.956;4.772;2023-10-13T08:34:36;100156.94;;;22.63;100.00
55490;BME280;44029;52.956;4.772;2023-10-13T08:37:25;100150.75;;;22.82;100.00
55490;BME280;44029;52.956;4.772;2023-10-13T08:39:53;100158.88;;;23.11;100.00
55490;BME280;44029;52.956;4.772;2023-10-13T08:42:35;100148.97;;;23.26;100.00
55490;BME280;44029;52.956;4.772;2023-10-13T08:45:10;100158.97;;;23.40;100.00
55490;BME280;44029;52.956;4.772;2023-10-13T08:47:48;100139.44;;;23.15;100.00
55490;BME280;44029;52.956;4.772;2023-10-13T08:50:36;100134.59;;;23.81;100.00
55490;BME280;44029;52.956;4.772;2023-10-13T08:58:47;100126.09;;;23.49;100.00
55490;BME280;44029;52.956;4.772;2023-10-13T09:04:02;100120.91;;;24.39;100.00
55490;BME280;44029;52.956;4.772;2023-10-13T09:07:09;100109.25;;;23.61;100.00
55490;BME280;44029;52.956;4.772;2023-10-13T09:12:20;100110.44;;;23.76;100.00
55490;BME280;44029;52.956;4.772;2023-10-13T09:14:55;100094.69;;;23.55;100.00
55490;BME280;44029;52.956;4.772;2023-10-13T09:17:28;100088.44;;;23.46;100.00
55490;BME280;44029;52.956;4.772;2023-10-13T09:22:46;100087.78;;;23.37;100.00
55490;BME280;44029;52.956;4.772;2023-10-13T09:25:22;100073.06;;;23.97;100.00
55490;BME280;44029;52.956;4.772;2023-10-13T09:27:48;100083.25;;;23.61;100.00
55490;BME280;44029;52.956;4.772;2023-10-13T09:30:18;100071.72;;;24.06;100.00
55490;BME280;44029;52.956;4.772;2023-10-13T09:32:46;100073.53;;;23.54;100.00
55490;BME280;44029;52.956;4.772;2023-10-13T09:35:18;100068.91;;;23.90;100.00
55490;BME280;44029;52.956;4.772;2023-10-13T09:37:45;100074.75;;;23.85;100.00
55490;BME280;44029;52.956;4.772;2023-10-13T09:40:21;100068.91;;;23.90;100.00
55490;BME280;44029;52.956;4.772;2023-10-13T09:42:54;100070.38;;;24.83;100.00
55490;BME280;44029;52.956;4.772;2023-10-13T09:45:30;100056.31;;;24.99;100.00
55490;BME280;44029;52.956;4.772;2023-10-13T09:48:02;100047.97;;;24.32;100.00
55490;BME280;44029;52.956;4.772;2023-10-13T09:50:36;100039.97;;;25.21;100.00
55490;BME280;44029;52.956;4.772;2023-10-13T09:53:04;100048.59;;;24.41;100.00
55490;BME280;44029;52.956;4.772;2023-10-13T09:55:38;100046.31;;;24.47;100.00
55490;BME280;44029;52.956;4.772;2023-10-13T09:58:07;100042.97;;;24.57;100.00
55490;BME280;44029;52.956;4.772;2023-10-13T10:00:47;100024.19;;;24.93;100.00
55490;BME280;44029;52.956;4.772;2023-10-13T10:03:21;100012.75;;;24.31;100.00
55490;BME280;44029;52.956;4.772;2023-10-13T10:27:05;100031.56;;;23.83;100.00
55490;BME280;44029;52.956;4.772;2023-10-13T10:29:31;100007.03;;;24.59;100.00
55490;BME280;44029;52.956;4.772;2023-10-13T10:31:57;100010.69;;;23.96;100.00
55490;BME280;44029;52.956;4.772;2023-10-13T10:34:30;100020.53;;;24.73;100.00
55490;BME280;44029;52.956;4.772;2023-10-13T10:36:57;100005.25;;;24.35;100.00
55490;BME280;44029;52.956;4.772;2023-10-13T10:39:33;100011.69;;;24.71;100.00
55490;BME280;44029;52.956;4.772;2023-10-13T10:42:11;99997.91;;;24.82;100.00
55490;BME280;44029;52.956;4.772;2023-10-13T10:44:41;99999.00;;;24.42;100.00
55490;BME280;44029;52.956;4.772;2023-10-13T10:47:18;100012.88;;;24.89;100.00
55490;BME280;44029;52.956;4.772;2023-10-13T10:49:59;100007.69;;;24.72;100.00
55490;BME280;44029;52.956;4.772;2023-10-13T10:52:44;100005.41;;;24.42;100.00
55490;BME280;44029;52.956;4.772;2023-10-13T10:55:12;100008.88;;;24.20;100.00
55490;BME280;44029;52.956;4.772;2023-10-13T10:57:39;99995.88;;;23.64;100.00
55490;BME280;44029;52.956;4.772;2023-10-13T11:00:18;100028.38;;;24.00;100.00
55490;BME280;44029;52.956;4.772;2023-10-13T11:02:56;100030.16;;;23.77;100.00
55490;BME280;44029;52.956;4.772;2023-10-13T11:05:22;100039.50;;;23.24;100.00
55490;BME280;44029;52.956;4.772;2023-10-13T11:07:49;100051.56;;;23.00;100.00
55490;BME280;44029;52.956;4.772;2023-10-13T11:10:16;100052.91;;;22.04;100.00
55490;BME280;44029;52.956;4.772;2023-10-13T11:13:08;100058.97;;;22.06;100.00
55490;BME280;44029;52.956;4.772;2023-10-13T11:15:47;100066.72;;;21.88;100.00
55490;BME280;44029;52.956;4.772;2023-10-13T11:18:14;100061.75;;;22.18;100.00
55490;BME280;44029;52.956;4.772;2023-10-13T11:20:49;100042.81;;;22.61;100.00
55490;BME280;44029;52.956;4.772;2023-10-13T11:23:20;100050.03;;;22.25;100.00
55490;BME280;44029;52.956;4.772;2023-10-13T11:26:00;100048.56;;;22.93;100.00
55490;BME280;44029;52.956;4.772;2023-10-13T11:28:25;100053.50;;;22.71;100.00
55490;BME280;44029;52.956;4.772;2023-10-13T11:30:55;100036.44;;;23.58;100.00
55490;BME280;44029;52.956;4.772;2023-10-13T11:33:25;100033.44;;;23.50;100.00
55490;BME280;44029;52.956;4.772;2023-10-13T11:35:55;100024.72;;;23.52;100.00
55490;BME280;44029;52.956;4.772;2023-10-13T11:38:31;100025.50;;;23.81;100.00
55490;BME280;44029;52.956;4.772;2023-10-13T11:41:08;100023.47;;;23.21;100.00
55490;BME280;44029;52.956;4.772;2023-10-13T11:43:45;100016.91;;;23.73;100.00
55490;BME280;44029;52.956;4.772;2023-10-13T11:49:08;100037.72;;;23.32;100.00
55490;BME280;44029;52.956;4.772;2023-10-13T11:51:52;100043.50;;;23.23;100.00
55490;BME280;44029;52.956;4.772;2023-10-13T11:54:27;100033.75;;;22.15;100.00
55490;BME280;44029;52.956;4.772;2023-10-13T11:56:52;100042.84;;;22.49;100.00
55490;BME280;44029;52.956;4.772;2023-10-13T11:59:17;100039.44;;;22.43;100.00
55490;BME280;44029;52.956;4.772;2023-10-13T12:01:44;100047.34;;;22.66;100.00
55490;BME280;44029;52.956;4.772;2023-10-13T12:04:28;100047.03;;;22.30;100.00
55490;BME280;44029;52.956;4.772;2023-10-13T12:07:07;100036.88;;;22.75;100.00
55490;BME280;44029;52.956;4.772;2023-10-13T12:09:47;100021.38;;;22.77;100.00
55490;BME280;44029;52.956;4.772;2023-10-13T12:12:24;100026.44;;;22.10;100.00
55490;BME280;44029;52.956;4.772;2023-10-13T12:14:51;100034.56;;;22.15;100.00
55490;BME280;44029;52.956;4.772;2023-10-13T12:17:30;100013.78;;;22.90;100.00
55490;BME280;44029;52.956;4.772;2023-10-13T12:20:05;99997.94;;;22.94;100.00
55490;BME280;44029;52.956;4.772;2023-10-13T12:22:34;99996.69;;;23.20;100.00
55490;BME280;44029;52.956;4.772;2023-10-13T12:25:16;99979.63;;;22.69;100.00
55490;BME280;44029;52.956;4.772;2023-10-13T12:28:09;99976.56;;;22.86;100.00
55490;BME280;44029;52.956;4.772;2023-10-13T12:30:43;99986.75;;;22.66;100.00
55490;BME280;44029;52.956;4.772;2023-10-13T12:33:16;99983.63;;;23.24;100.00
55490;BME280;44029;52.956;4.772;2023-10-13T12:36:00;99973.53;;;23.20;100.00
55490;BME280;44029;52.956;4.772;2023-10-13T12:38:35;99984.66;;;22.63;100.00
55490;BME280;44029;52.956;4.772;2023-10-13T12:41:14;99956.13;;;22.98;100.00
55490;BME280;44029;52.956;4.772;2023-10-13T12:43:58;99944.75;;;22.91;100.00
55490;BME280;44029;52.956;4.772;2023-10-13T12:46:41;99927.31;;;22.66;100.00
55490;BME280;44029;52.956;4.772;2023-10-13T12:49:25;99937.13;;;22.47;100.00
55490;BME280;44029;52.956;4.772;2023-10-13T12:52:10;99934.59;;;22.98;100.00
55490;BME280;44029;52.956;4.772;2023-10-13T12:54:44;99942.19;;;23.74;100.00
55490;BME280;44029;52.956;4.772;2023-10-13T12:57:27;99948.16;;;23.57;100.00
55490;BME280;44029;52.956;4.772;2023-10-13T12:59:53;99937.72;;;22.81;100.00
55490;BME280;44029;52.956;4.772;2023-10-13T13:02:20;99939.13;;;23.03;100.00
55490;BME280;44029;52.956;4.772;2023-10-13T13:04:45;99941.00;;;22.71;100.00
55490;BME280;44029;52.956;4.772;2023-10-13T13:07:13;99945.97;;;22.77;100.00
55490;BME280;44029;52.956;4.772;2023-10-13T13:09:41;99945.75;;;22.98;100.00
55490;BME280;44029;52.956;4.772;2023-10-13T13:12:07;99961.16;;;23.05;100.00
55490;BME280;44029;52.956;4.772;2023-10-13T13:14:32;99940.00;;;22.91;100.00
55490;BME280;44029;52.956;4.772;2023-10-13T13:17:02;99940.28;;;23.02;100.00
55490;BME280;44029;52.956;4.772;2023-10-13T13:19:35;99948.28;;;23.32;100.00
55490;BME280;44029;52.956;4.772;2023-10-13T13:22:08;99930.72;;;23.63;100.00
55490;BME280;44029;52.956;4.772;2023-10-13T13:24:43;99928.66;;;23.44;100.00
55490;BME280;44029;52.956;4.772;2023-10-13T13:27:14;99929.56;;;23.64;100.00
55490;BME280;44029;52.956;4.772;2023-10-13T13:29:43;99918.03;;;23.66;100.00
55490;BME280;44029;52.956;4.772;2023-10-13T13:32:09;99915.81;;;23.11;100.00
55490;BME280;44029;52.956;4.772;2023-10-13T13:34:50;99921.00;;;23.25;100.00
55490;BME280;44029;52.956;4.772;2023-10-13T13:37:38;99917.81;;;23.11;100.00
55490;BME280;44029;52.956;4.772;2023-10-13T13:40:05;99913.97;;;23.31;100.00
55490;BME280;44029;52.956;4.772;2023-10-13T13:42:46;99902.16;;;23.38;100.00
55490;BME280;44029;52.956;4.772;2023-10-13T13:45:13;99908.44;;;23.67;100.00
55490;BME280;44029;52.956;4.772;2023-10-13T13:47:52;99909.06;;;23.76;100.00
55490;BME280;44029;52.956;4.772;2023-10-13T13:50:25;99916.47;;;24.00;100.00
55490;BME280;44029;52.956;4.772;2023-10-13T13:52:55;99919.81;;;24.41;100.00
55490;BME280;44029;52.956;4.772;2023-10-13T13:55:22;99913.63;;;23.81;100.00